createdAt,value
2019-02-20T00:01:01.218Z,41.7
2019-02-20T00:06:56.249Z,42.48
2019-02-20T00:12:51.213Z,38.55
2019-02-20T00:18:46.284Z,34.51
2019-02-20T00:24:41.240Z,33.74
2019-02-20T00:30:36.237Z,32.25
2019-02-20T00:36:31.250Z,32.3
2019-02-20T00:42:26.245Z,32.22
2019-02-20T00:48:21.311Z,32.92
2019-02-20T00:54:16.238Z,31.21
2019-02-20T01:00:11.252Z,31.65
2019-02-20T01:06:06.253Z,47.03
2019-02-20T01:12:01.255Z,56.77
2019-02-20T01:17:56.240Z,46.87
2019-02-20T01:23:51.254Z,43.31
2019-02-20T01:29:46.299Z,41.98
2019-02-20T01:35:41.267Z,38.08
2019-02-20T01:41:36.265Z,36.98
2019-02-20T01:47:31.283Z,37.52
2019-02-20T01:53:26.276Z,36.3
2019-02-20T01:59:21.365Z,39.1
2019-02-20T02:05:16.277Z,43.64
2019-02-20T02:11:11.278Z,45.81
2019-02-20T02:17:06.281Z,50.52
2019-02-20T02:23:01.324Z,48.48
2019-02-20T02:28:56.308Z,47.42
2019-02-20T02:34:51.386Z,46.36
2019-02-20T02:40:46.330Z,55.57
2019-02-20T02:46:41.334Z,53.84
2019-02-20T02:52:36.328Z,51.91
2019-02-20T02:58:31.339Z,48.72
2019-02-20T03:04:26.307Z,47.13
2019-02-20T03:10:21.326Z,42.29
2019-02-20T03:16:16.304Z,45.95
2019-02-20T03:22:11.382Z,45.33
2019-02-20T03:28:06.393Z,45.88
2019-02-20T03:34:01.370Z,44.63
2019-02-20T03:39:56.410Z,48.01
2019-02-20T03:45:51.329Z,47.85
2019-02-20T03:51:46.376Z,45.34
2019-02-20T03:57:41.324Z,42.83
2019-02-20T04:03:36.327Z,48.54
2019-02-20T04:09:31.388Z,40.71
2019-02-20T04:15:26.395Z,39.57
2019-02-20T04:21:21.412Z,48.08
2019-02-20T04:27:16.423Z,38.46
2019-02-20T04:33:11.424Z,35.75
2019-02-20T04:39:06.369Z,36.72
2019-02-20T04:45:01.370Z,35.68
2019-02-20T04:50:56.347Z,34.47
2019-02-20T04:56:51.522Z,37.98
2019-02-20T05:02:46.373Z,36.96
2019-02-20T05:08:41.492Z,42.13
2019-02-20T05:14:36.371Z,43.52
2019-02-20T05:20:31.395Z,45.29
2019-02-20T05:26:26.377Z,44.72
2019-02-20T05:32:21.400Z,40.67
2019-02-20T05:38:16.407Z,41.68
2019-02-20T05:44:11.381Z,36.33
2019-02-20T05:50:06.420Z,38.6
2019-02-20T05:56:01.442Z,46.98
2019-02-20T06:01:56.426Z,42.01
2019-02-20T06:07:51.409Z,36.21
2019-02-20T06:13:46.408Z,44.57
2019-02-20T06:19:41.419Z,40.88
2019-02-20T06:25:36.462Z,37.9
2019-02-20T06:31:31.456Z,39.76
2019-02-20T06:43:21.975Z,41.46
2019-02-20T06:49:16.427Z,33.41
2019-02-20T06:55:11.470Z,33.72
2019-02-20T07:01:06.429Z,37.27
2019-02-20T07:07:01.447Z,39.28
2019-02-20T07:12:56.437Z,35.27
2019-02-20T07:18:51.427Z,48.76
2019-02-20T07:24:46.435Z,45.35
2019-02-20T07:30:41.451Z,40.91
2019-02-20T07:36:36.437Z,41.35
2019-02-20T07:42:31.451Z,58.52
2019-02-20T07:48:26.480Z,63.52
2019-02-20T07:54:21.488Z,49.68
2019-02-20T08:00:16.533Z,52.87
2019-02-20T08:06:11.469Z,82.94
2019-02-20T08:12:06.474Z,212.51
2019-02-20T08:18:01.474Z,123.27
2019-02-20T08:23:56.499Z,93.1
2019-02-20T08:29:51.485Z,55.57
2019-02-20T08:35:46.484Z,45.41
2019-02-20T08:41:41.491Z,44.47
2019-02-20T08:47:36.538Z,62.18
2019-02-20T08:53:31.535Z,67.24
2019-02-20T08:59:26.493Z,68.8
2019-02-20T09:05:21.492Z,80.4
2019-02-20T09:11:16.524Z,62.48
2019-02-20T09:17:11.527Z,59.25
2019-02-20T09:23:06.514Z,66.3
2019-02-20T09:29:01.539Z,63.91
2019-02-20T09:34:56.550Z,60.98
2019-02-20T09:40:51.597Z,55.18
2019-02-20T09:46:46.521Z,60.1
2019-02-20T09:52:41.522Z,53.8
2019-02-20T09:58:36.531Z,57.39
2019-02-20T10:04:31.532Z,50.71
2019-02-20T10:10:26.565Z,43.73
2019-02-20T10:16:21.536Z,40.1
2019-02-20T10:22:16.572Z,38.57
2019-02-20T10:28:11.561Z,44.37
2019-02-20T10:34:06.560Z,30.16
2019-02-20T10:40:01.573Z,35.08
2019-02-20T10:45:56.577Z,84.33
2019-02-20T10:51:51.554Z,52.45
2019-02-20T10:57:46.603Z,32.21
2019-02-20T11:03:41.640Z,25.39
2019-02-20T11:09:36.574Z,28.76
2019-02-20T11:15:31.613Z,24.45
2019-02-20T11:21:26.584Z,25.88
2019-02-20T11:27:21.586Z,28.84
2019-02-20T11:33:16.628Z,28.18
2019-02-20T11:39:11.778Z,27.2
2019-02-20T11:45:06.616Z,24.34
2019-02-20T11:51:01.609Z,29.71
2019-02-20T11:56:56.621Z,20.26
2019-02-20T12:02:51.606Z,16.8
2019-02-20T12:08:46.618Z,19.99
2019-02-20T12:14:41.649Z,12.43
2019-02-20T12:20:36.658Z,15.43
2019-02-20T12:26:35.100Z,19.27
2019-02-20T12:32:32.013Z,16.51
2019-02-20T12:38:21.624Z,34.29
2019-02-20T12:44:16.643Z,34.29
2019-02-20T12:50:11.664Z,105.21
2019-02-20T12:56:09.919Z,19
2019-02-20T13:02:01.663Z,18.17
2019-02-20T13:07:56.717Z,20.03
2019-02-20T13:13:51.665Z,20.65
2019-02-20T13:19:46.661Z,17.96
2019-02-20T13:25:41.671Z,24.39
2019-02-20T13:31:36.682Z,68.64
2019-02-20T13:37:31.671Z,30.11
2019-02-20T13:43:26.698Z,20.12
2019-02-20T13:49:21.670Z,19.43
2019-02-20T13:55:16.721Z,23.26
2019-02-20T14:01:11.697Z,21.17
2019-02-20T14:07:06.716Z,18.32
2019-02-20T14:13:02.765Z,16.07
2019-02-20T14:18:56.686Z,16.49
2019-02-20T14:24:51.705Z,15.17
2019-02-20T14:30:46.711Z,14.71
2019-02-20T14:36:41.704Z,14.6
2019-02-20T14:42:36.714Z,16.11
2019-02-20T14:48:31.715Z,14.13
2019-02-20T14:54:26.702Z,13.24
2019-02-20T15:00:21.737Z,14.01
2019-02-20T15:06:16.743Z,11.87
2019-02-20T15:12:11.756Z,15.89
2019-02-20T15:18:06.748Z,16.47
2019-02-20T15:24:01.741Z,13.48
2019-02-20T15:29:56.751Z,15.13
2019-02-20T15:35:51.743Z,15.42
2019-02-20T15:41:46.750Z,11.45
2019-02-20T15:47:41.761Z,11.89
2019-02-20T15:53:36.760Z,11.84
2019-02-20T15:59:31.747Z,13.73
2019-02-20T16:05:26.766Z,14.67
2019-02-20T16:11:21.778Z,15.78
2019-02-20T16:17:16.762Z,16
2019-02-20T16:23:11.776Z,13.84
2019-02-20T16:29:06.793Z,13.23
2019-02-20T16:35:01.795Z,13.09
2019-02-20T16:40:56.811Z,15.94
2019-02-20T16:46:51.782Z,15.15
2019-02-20T16:52:46.779Z,13.56
2019-02-20T16:58:43.168Z,17.95
2019-02-20T17:04:36.836Z,18.49
2019-02-20T17:10:31.800Z,17.71
2019-02-20T17:16:26.831Z,23.53
2019-02-20T17:22:21.814Z,26.79
2019-02-20T17:28:16.809Z,31.32
2019-02-20T17:34:11.831Z,26.86
2019-02-20T17:40:06.871Z,27.8
2019-02-20T17:46:01.823Z,26.77
2019-02-20T17:51:56.826Z,35.16
2019-02-20T17:57:51.827Z,23.62
2019-02-20T18:03:47.011Z,22.86
2019-02-20T18:09:41.858Z,26.07
2019-02-20T18:15:36.832Z,22.75
2019-02-20T18:21:31.857Z,24.39
2019-02-20T18:27:26.849Z,19.87
2019-02-20T18:33:21.893Z,20.65
2019-02-20T18:39:16.870Z,22.87
2019-02-20T18:45:11.846Z,21.85
2019-02-20T18:51:06.855Z,27.4
2019-02-20T18:57:01.874Z,23.24
2019-02-20T19:02:56.862Z,24.7
2019-02-20T19:08:51.886Z,23.27
2019-02-20T19:14:46.925Z,21.88
2019-02-20T19:20:41.914Z,21.29
2019-02-20T19:26:36.864Z,27.08
2019-02-20T19:32:31.866Z,27.04
2019-02-20T19:38:26.857Z,26.1
2019-02-20T19:44:21.948Z,23.75
2019-02-20T19:50:16.890Z,21.2
2019-02-20T19:56:11.942Z,24.73
2019-02-20T20:02:06.924Z,23.66
2019-02-20T20:08:01.920Z,22.66
2019-02-20T20:13:56.922Z,24.17
2019-02-20T20:19:51.917Z,28.62
2019-02-20T20:25:46.903Z,21.88
2019-02-20T20:31:41.939Z,26.82
2019-02-20T20:37:36.904Z,29.68
2019-02-20T20:43:31.900Z,25.01
2019-02-20T20:49:28.779Z,27.87
2019-02-20T20:55:21.922Z,28.13
2019-02-20T21:01:16.915Z,27.64
2019-02-20T21:07:11.951Z,29.42
2019-02-20T21:13:06.935Z,27.18
2019-02-20T21:19:01.947Z,24.32
2019-02-20T21:24:56.922Z,24.33
2019-02-20T21:30:52.037Z,24.01
2019-02-20T21:36:46.970Z,27.36
2019-02-20T21:42:43.689Z,30.8
2019-02-20T21:48:36.946Z,26.91
2019-02-20T21:54:31.953Z,27.38
2019-02-20T22:00:27.800Z,23.87
2019-02-20T22:06:21.955Z,25.17
2019-02-20T22:12:17.064Z,30.1
2019-02-20T22:18:11.964Z,26.57
2019-02-20T22:24:06.956Z,28.9
2019-02-20T22:30:01.995Z,27.54
2019-02-20T22:35:56.997Z,29.08
2019-02-20T22:41:51.972Z,25.58
2019-02-20T22:47:47.002Z,30.08
2019-02-20T22:53:42.004Z,29.83
2019-02-20T22:59:37.029Z,28.22
2019-02-20T23:05:32.021Z,27.95
2019-02-20T23:11:27.032Z,29.97
2019-02-20T23:17:21.998Z,31.38
2019-02-20T23:23:17.050Z,31.01
2019-02-20T23:29:12.002Z,28.17
2019-02-20T23:35:07.021Z,31.38
2019-02-20T23:41:02.084Z,33.34
2019-02-20T23:46:57.014Z,33.17
2019-02-20T23:52:52.043Z,30.63
2019-02-20T23:58:47.054Z,34.88
